createdAt,value
2023-03-17T00:01:24.204Z,2.30
2023-03-17T00:03:51.706Z,3.10
2023-03-17T00:06:25.353Z,2.72
2023-03-17T00:08:52.463Z,2.85
2023-03-17T00:11:21.480Z,3.78
2023-03-17T00:13:49.228Z,3.20
2023-03-17T00:16:26.078Z,3.25
2023-03-17T00:18:55.132Z,3.40
2023-03-17T00:21:30.793Z,3.42
2023-03-17T00:23:59.674Z,2.92
2023-03-17T00:26:27.877Z,3.05
2023-03-17T00:28:55.654Z,3.40
2023-03-17T00:31:25.944Z,2.67
2023-03-17T00:33:54.447Z,3.00
2023-03-17T00:36:28.251Z,3.80
2023-03-17T00:38:55.961Z,2.95
2023-03-17T00:41:25.423Z,3.22
2023-03-17T00:43:52.867Z,2.63
2023-03-17T00:46:27.767Z,2.63
2023-03-17T00:48:55.393Z,3.15
2023-03-17T00:51:23.580Z,2.97
2023-03-17T00:53:50.967Z,2.67
2023-03-17T00:56:20.877Z,2.80
2023-03-17T00:58:48.889Z,2.88
2023-03-17T01:01:16.552Z,3.10
2023-03-17T01:03:43.749Z,2.83
2023-03-17T01:06:13.297Z,2.72
2023-03-17T01:08:41.250Z,3.35
2023-03-17T01:11:20.242Z,2.70
2023-03-17T01:13:48.174Z,3.22
2023-03-17T01:16:15.869Z,2.72
2023-03-17T01:18:43.757Z,3.10
2023-03-17T01:21:10.923Z,2.88
2023-03-17T01:23:38.253Z,2.70
2023-03-17T01:26:06.820Z,2.50
2023-03-17T01:28:34.695Z,2.40
2023-03-17T01:31:03.009Z,2.53
2023-03-17T01:33:30.165Z,2.53
2023-03-17T01:35:57.775Z,2.70
2023-03-17T01:38:24.909Z,2.30
2023-03-17T01:40:52.663Z,2.55
2023-03-17T01:43:24.375Z,2.60
2023-03-17T01:46:22.366Z,2.50
2023-03-17T01:48:58.721Z,2.78
2023-03-17T01:51:47.602Z,2.85
2023-03-17T01:54:20.907Z,2.30
2023-03-17T01:56:52.295Z,2.08
2023-03-17T01:59:28.825Z,2.35
2023-03-17T02:02:01.649Z,2.25
2023-03-17T02:04:29.904Z,2.78
2023-03-17T02:06:58.936Z,2.25
2023-03-17T02:09:28.040Z,2.60
2023-03-17T02:11:56.509Z,3.10
2023-03-17T02:14:23.986Z,2.50
2023-03-17T02:16:51.215Z,2.38
2023-03-17T02:19:18.606Z,2.22
2023-03-17T02:21:54.119Z,2.50
2023-03-17T02:24:28.340Z,2.30
2023-03-17T02:27:03.682Z,2.60
2023-03-17T02:29:35.089Z,2.28
2023-03-17T02:32:03.133Z,2.50
2023-03-17T02:34:31.918Z,2.75
2023-03-17T02:36:59.382Z,2.20
2023-03-17T02:39:26.912Z,2.35
2023-03-17T02:41:54.083Z,2.08
2023-03-17T02:44:22.190Z,2.20
2023-03-17T02:46:49.642Z,2.33
2023-03-17T02:49:17.660Z,2.50
2023-03-17T02:51:45.860Z,2.40
2023-03-17T02:54:13.050Z,2.17
2023-03-17T02:56:40.177Z,2.08
2023-03-17T02:59:07.382Z,2.00
2023-03-17T03:01:35.128Z,2.30
2023-03-17T03:04:02.695Z,2.80
2023-03-17T03:06:29.887Z,2.50
2023-03-17T03:08:57.031Z,2.85
2023-03-17T03:11:24.103Z,2.15
2023-03-17T03:13:51.330Z,2.40
2023-03-17T03:16:18.470Z,2.20
2023-03-17T03:18:45.849Z,2.25
2023-03-17T03:21:12.954Z,2.38
2023-03-17T03:23:40.292Z,2.08
2023-03-17T03:26:07.935Z,2.33
2023-03-17T03:28:35.245Z,2.40
2023-03-17T03:31:02.312Z,2.30
2023-03-17T03:33:29.462Z,2.38
2023-03-17T03:35:57.130Z,2.20
2023-03-17T03:38:24.387Z,2.08
2023-03-17T03:40:53.021Z,2.17
2023-03-17T03:43:23.727Z,2.13
2023-03-17T03:45:52.129Z,1.92
2023-03-17T03:48:19.383Z,2.50
2023-03-17T03:50:46.602Z,2.08
2023-03-17T03:53:14.393Z,2.40
2023-03-17T03:55:41.906Z,2.30
2023-03-17T03:58:09.107Z,2.05
2023-03-17T04:00:36.270Z,1.77
2023-03-17T04:03:03.491Z,1.88
2023-03-17T04:05:32.950Z,1.88
2023-03-17T04:08:00.143Z,1.98
2023-03-17T04:10:27.260Z,1.75
2023-03-17T04:12:55.967Z,2.40
2023-03-17T04:15:23.210Z,1.73
2023-03-17T04:17:50.529Z,1.90
2023-03-17T04:20:18.505Z,2.00
2023-03-17T04:22:45.738Z,1.67
2023-03-17T04:25:14.643Z,2.75
2023-03-17T04:27:43.011Z,3.00
2023-03-17T04:30:14.108Z,3.08
2023-03-17T04:32:41.988Z,4.72
2023-03-17T04:35:14.629Z,4.40
2023-03-17T04:37:41.925Z,3.60
2023-03-17T04:40:11.090Z,2.78
2023-03-17T04:42:38.542Z,2.85
2023-03-17T04:45:11.465Z,2.85
2023-03-17T04:47:39.589Z,2.95
2023-03-17T04:50:09.024Z,2.70
2023-03-17T04:52:37.088Z,2.58
2023-03-17T04:55:06.947Z,2.83
2023-03-17T04:57:34.802Z,2.13
2023-03-17T05:00:01.830Z,2.40
2023-03-17T05:02:29.458Z,2.67
2023-03-17T05:04:56.438Z,2.03
2023-03-17T05:07:23.714Z,2.45
2023-03-17T05:09:50.705Z,2.80
2023-03-17T05:12:17.956Z,2.38
2023-03-17T05:14:44.910Z,2.33
2023-03-17T05:17:12.266Z,2.38
2023-03-17T05:19:39.280Z,3.47
2023-03-17T05:22:06.424Z,3.47
2023-03-17T05:24:33.782Z,3.60
2023-03-17T05:27:00.938Z,3.42
2023-03-17T05:29:28.055Z,3.83
2023-03-17T05:31:55.168Z,3.33
2023-03-17T05:34:22.337Z,3.70
2023-03-17T05:36:50.620Z,3.58
2023-03-17T05:39:17.805Z,3.22
2023-03-17T05:41:44.892Z,4.00
2023-03-17T05:44:12.216Z,3.40
2023-03-17T05:46:39.251Z,3.45
2023-03-17T05:49:06.457Z,3.20
2023-03-17T05:51:36.747Z,2.45
2023-03-17T05:54:04.115Z,2.42
2023-03-17T05:56:34.026Z,3.10
2023-03-17T05:59:02.514Z,3.78
2023-03-17T06:01:31.550Z,4.63
2023-03-17T06:03:58.876Z,3.97
2023-03-17T06:06:26.111Z,5.10
2023-03-17T06:08:53.410Z,3.60
2023-03-17T06:11:21.732Z,3.95
2023-03-17T06:13:48.927Z,4.40
2023-03-17T06:16:16.848Z,4.10
2023-03-17T06:18:45.552Z,3.80
2023-03-17T06:21:13.849Z,3.58
2023-03-17T06:23:41.196Z,3.15
2023-03-17T06:26:08.368Z,3.25
2023-03-17T06:28:35.906Z,4.07
2023-03-17T06:31:05.341Z,3.33
2023-03-17T06:33:34.713Z,2.72
2023-03-17T06:36:02.220Z,3.40
2023-03-17T06:38:29.478Z,2.97
2023-03-17T06:40:56.600Z,3.05
2023-03-17T06:43:25.097Z,3.47
2023-03-17T06:45:52.730Z,3.20
2023-03-17T06:48:19.984Z,3.13
2023-03-17T06:50:50.406Z,3.45
2023-03-17T06:53:17.753Z,3.30
2023-03-17T06:55:45.305Z,3.65
2023-03-17T06:58:13.417Z,3.38
2023-03-17T07:00:40.591Z,3.08
2023-03-17T07:03:08.011Z,3.65
2023-03-17T07:05:37.881Z,3.45
2023-03-17T07:08:06.358Z,3.60
2023-03-17T07:10:33.488Z,4.40
2023-03-17T07:13:00.591Z,4.70
2023-03-17T07:15:27.710Z,4.38
2023-03-17T07:17:54.898Z,1.90
2023-03-17T07:20:22.194Z,2.30
2023-03-17T07:22:49.188Z,2.08
2023-03-17T07:25:17.769Z,1.77
2023-03-17T07:27:44.788Z,1.42
2023-03-17T07:30:13.141Z,1.52
2023-03-17T07:32:40.530Z,2.05
2023-03-17T07:35:08.334Z,1.67
2023-03-17T07:37:35.736Z,2.10
2023-03-17T07:40:04.627Z,2.78
2023-03-17T07:42:31.722Z,2.17
2023-03-17T07:44:58.937Z,1.90
2023-03-17T07:47:26.231Z,2.10
2023-03-17T07:49:53.681Z,2.58
2023-03-17T07:52:20.779Z,1.85
2023-03-17T07:54:47.856Z,2.03
2023-03-17T07:57:16.945Z,1.77
2023-03-17T07:59:44.639Z,2.10
2023-03-17T08:02:16.266Z,1.92
2023-03-17T08:04:44.801Z,1.80
2023-03-17T08:07:12.982Z,1.75
2023-03-17T08:09:40.966Z,1.55
2023-03-17T08:12:09.471Z,1.63
2023-03-17T08:14:36.801Z,1.45
2023-03-17T08:17:04.997Z,1.75
2023-03-17T08:19:32.062Z,1.88
2023-03-17T08:21:59.543Z,1.60
2023-03-17T08:24:27.253Z,2.22
2023-03-17T08:26:54.532Z,2.53
2023-03-17T08:29:21.555Z,2.30
2023-03-17T08:31:48.738Z,1.58
2023-03-17T08:34:16.726Z,1.60
2023-03-17T08:36:44.617Z,1.73
2023-03-17T08:39:12.059Z,2.25
2023-03-17T08:41:39.216Z,1.90
2023-03-17T08:44:08.968Z,1.95
2023-03-17T08:46:36.152Z,2.42
2023-03-17T08:49:03.611Z,2.65
2023-03-17T08:51:34.519Z,1.95
2023-03-17T08:54:02.447Z,1.70
2023-03-17T08:56:30.073Z,2.47
2023-03-17T08:58:57.286Z,2.42
2023-03-17T09:01:25.254Z,2.13
2023-03-17T09:03:54.900Z,2.05
2023-03-17T09:06:24.321Z,1.65
2023-03-17T09:08:55.631Z,1.73
2023-03-17T09:11:26.311Z,1.75
2023-03-17T09:13:54.695Z,1.80
2023-03-17T09:16:24.191Z,1.60
2023-03-17T09:18:51.569Z,1.70
2023-03-17T09:21:19.056Z,1.60
2023-03-17T09:23:47.128Z,1.50
2023-03-17T09:26:14.229Z,1.58
2023-03-17T09:28:41.861Z,2.08
2023-03-17T09:31:12.569Z,1.58
2023-03-17T09:33:41.000Z,1.48
2023-03-17T09:36:09.908Z,1.52
2023-03-17T09:38:40.234Z,2.05
2023-03-17T09:41:16.248Z,1.42
2023-03-17T09:44:10.256Z,1.60
2023-03-17T09:49:49.000Z,1.50
2023-03-17T09:52:18.911Z,1.63
2023-03-17T09:54:49.748Z,2.05
2023-03-17T09:57:40.231Z,1.73
2023-03-17T10:00:19.224Z,1.50
2023-03-17T10:02:47.571Z,1.65
2023-03-17T10:05:17.375Z,2.25
2023-03-17T10:07:48.667Z,1.80
2023-03-17T10:10:23.241Z,2.00
2023-03-17T10:13:18.826Z,1.58
2023-03-17T10:15:50.645Z,1.73
2023-03-17T10:18:23.290Z,1.63
2023-03-17T10:21:07.257Z,1.40
2023-03-17T10:23:36.397Z,1.92
2023-03-17T10:26:20.304Z,1.83
2023-03-17T10:28:47.540Z,1.75
2023-03-17T10:31:20.648Z,1.27
2023-03-17T10:33:52.712Z,1.83
2023-03-17T10:36:36.454Z,1.40
2023-03-17T10:41:36.377Z,1.67
2023-03-17T10:44:10.803Z,1.90
2023-03-17T10:46:38.954Z,1.95
2023-03-17T10:49:16.881Z,1.65
2023-03-17T10:51:46.766Z,1.52
2023-03-17T10:54:19.035Z,1.38
2023-03-17T10:57:01.553Z,1.05
2023-03-17T10:59:43.436Z,1.35
2023-03-17T11:02:22.150Z,1.35
2023-03-17T11:04:49.418Z,1.38
2023-03-17T11:07:22.297Z,1.40
2023-03-17T11:09:51.805Z,1.52
2023-03-17T11:12:25.925Z,1.30
2023-03-17T11:15:04.039Z,1.75
2023-03-17T11:17:36.951Z,1.60
2023-03-17T11:20:16.208Z,1.55
2023-03-17T11:22:54.954Z,1.50
2023-03-17T11:25:23.730Z,1.20
2023-03-17T11:28:17.946Z,1.40
2023-03-17T11:31:00.383Z,1.38
2023-03-17T11:33:49.866Z,1.58
2023-03-17T11:36:35.241Z,1.63
2023-03-17T11:39:35.585Z,1.20
2023-03-17T11:42:36.549Z,1.30
2023-03-17T11:45:40.616Z,1.48
2023-03-17T11:48:28.280Z,1.30
2023-03-17T11:51:12.234Z,1.48
2023-03-17T11:54:17.813Z,1.30
2023-03-17T11:57:03.430Z,1.33
2023-03-17T11:59:39.379Z,1.27
2023-03-17T12:02:07.386Z,1.60
2023-03-17T12:04:49.648Z,1.80
2023-03-17T12:07:29.092Z,1.50
2023-03-17T12:10:15.982Z,1.20
2023-03-17T12:12:50.860Z,1.30
2023-03-17T12:15:53.305Z,1.52
2023-03-17T12:18:31.277Z,1.23
2023-03-17T12:21:01.835Z,1.63
2023-03-17T12:23:49.950Z,1.20
2023-03-17T12:26:55.040Z,1.17
2023-03-17T12:29:28.886Z,1.50
2023-03-17T12:32:08.590Z,1.45
2023-03-17T12:34:58.417Z,1.35
2023-03-17T12:37:28.377Z,1.70
2023-03-17T12:40:32.723Z,1.50
2023-03-17T12:43:17.674Z,1.88
2023-03-17T12:45:55.023Z,2.05
2023-03-17T12:48:34.008Z,1.90
2023-03-17T12:51:43.978Z,1.80
2023-03-17T12:54:29.999Z,1.90
2023-03-17T12:57:17.713Z,1.92
2023-03-17T12:59:48.551Z,1.67
2023-03-17T13:02:27.573Z,1.75
2023-03-17T13:05:02.895Z,1.48
2023-03-17T13:07:55.001Z,1.40
2023-03-17T13:10:40.135Z,2.00
2023-03-17T13:13:12.267Z,1.50
2023-03-17T13:15:39.977Z,1.67
2023-03-17T13:18:13.727Z,1.40
2023-03-17T13:20:51.865Z,2.00
2023-03-17T13:23:23.977Z,1.70
2023-03-17T13:25:55.508Z,1.75
2023-03-17T13:28:35.062Z,1.52
2023-03-17T13:31:16.555Z,2.05
2023-03-17T13:33:49.446Z,1.63
2023-03-17T13:36:25.742Z,1.52
2023-03-17T13:39:27.279Z,1.40
2023-03-17T13:42:18.609Z,1.63
2023-03-17T13:45:01.385Z,1.77
2023-03-17T13:47:35.727Z,1.88
2023-03-17T13:50:09.079Z,1.75
2023-03-17T13:55:23.829Z,2.88
2023-03-17T13:58:11.678Z,1.60
2023-03-17T14:00:41.762Z,1.73
2023-03-17T14:03:29.187Z,1.40
2023-03-17T14:05:56.808Z,1.52
2023-03-17T14:08:35.876Z,1.50
2023-03-17T14:11:09.155Z,1.73
2023-03-17T14:16:30.315Z,1.63
2023-03-17T14:19:12.226Z,1.35
2023-03-17T14:21:39.401Z,1.80
2023-03-17T14:24:22.542Z,1.48
2023-03-17T14:26:51.203Z,1.90
2023-03-17T14:29:22.471Z,1.63
2023-03-17T14:31:53.563Z,1.52
2023-03-17T14:34:24.875Z,1.50
2023-03-17T14:36:52.465Z,2.00
2023-03-17T14:39:23.249Z,1.92
2023-03-17T14:42:04.836Z,1.80
2023-03-17T14:44:43.123Z,1.88
2023-03-17T14:47:20.404Z,2.00
2023-03-17T14:49:48.673Z,2.25
2023-03-17T14:52:27.477Z,1.92
2023-03-17T14:54:58.624Z,1.90
2023-03-17T14:57:32.982Z,2.38
2023-03-17T15:00:30.495Z,2.03
2023-03-17T15:03:02.169Z,1.90
2023-03-17T15:05:42.142Z,2.33
2023-03-17T15:08:36.246Z,2.38
2023-03-17T15:11:07.009Z,2.40
2023-03-17T15:13:37.060Z,2.50
2023-03-17T15:16:17.046Z,2.17
2023-03-17T15:18:44.870Z,1.90
2023-03-17T15:21:33.525Z,2.38
2023-03-17T15:24:06.805Z,2.20
2023-03-17T15:26:37.465Z,2.15
2023-03-17T15:29:04.699Z,2.38
2023-03-17T15:31:31.876Z,2.50
2023-03-17T15:33:59.277Z,2.20
2023-03-17T15:36:32.782Z,2.83
2023-03-17T15:39:01.371Z,2.08
2023-03-17T15:41:28.693Z,2.00
2023-03-17T15:43:56.588Z,2.20
2023-03-17T15:46:27.751Z,1.88
2023-03-17T15:48:55.253Z,3.22
2023-03-17T15:51:22.699Z,2.03
2023-03-17T15:53:50.368Z,2.13
2023-03-17T15:56:20.539Z,2.35
2023-03-17T15:58:49.584Z,2.15
2023-03-17T16:01:17.158Z,2.45
2023-03-17T16:03:47.267Z,1.75
2023-03-17T16:06:19.540Z,2.10
2023-03-17T16:08:46.743Z,2.35
2023-03-17T16:11:19.894Z,2.03
2023-03-17T16:13:48.016Z,2.17
2023-03-17T16:16:32.451Z,1.95
2023-03-17T16:19:00.309Z,2.75
2023-03-17T16:21:29.643Z,2.40
2023-03-17T16:23:56.926Z,2.05
2023-03-17T16:26:24.241Z,2.40
2023-03-17T16:28:51.548Z,2.10
2023-03-17T16:31:28.373Z,2.45
2023-03-17T16:33:55.809Z,2.30
2023-03-17T16:36:24.755Z,2.00
2023-03-17T16:38:52.504Z,2.25
2023-03-17T16:41:26.958Z,2.50
2023-03-17T16:44:00.246Z,2.42
2023-03-17T16:46:34.619Z,2.80
2023-03-17T16:49:02.965Z,2.50
2023-03-17T16:51:30.577Z,2.50
2023-03-17T16:53:57.738Z,2.50
2023-03-17T16:56:27.308Z,1.95
2023-03-17T16:58:54.641Z,2.30
2023-03-17T17:01:27.412Z,2.70
2023-03-17T17:03:55.785Z,2.67
2023-03-17T17:06:24.321Z,2.00
2023-03-17T17:08:52.310Z,2.60
2023-03-17T17:11:20.504Z,2.55
2023-03-17T17:13:49.168Z,2.25
2023-03-17T17:16:25.661Z,2.22
2023-03-17T17:18:53.056Z,2.30
2023-03-17T17:21:20.747Z,2.75
2023-03-17T17:23:48.135Z,2.47
2023-03-17T17:26:15.650Z,2.28
2023-03-17T17:28:42.885Z,2.40
2023-03-17T17:31:10.843Z,2.58
2023-03-17T17:33:39.613Z,10.73
2023-03-17T17:36:13.349Z,3.00
2023-03-17T17:41:09.432Z,2.17
2023-03-17T17:43:36.727Z,2.67
2023-03-17T17:46:03.790Z,2.50
2023-03-17T17:48:31.003Z,2.58
2023-03-17T17:50:58.378Z,2.13
2023-03-17T17:53:25.988Z,2.78
2023-03-17T17:55:53.247Z,2.35
2023-03-17T17:58:24.858Z,3.05
2023-03-17T18:00:55.558Z,2.20
2023-03-17T18:03:26.373Z,2.33
2023-03-17T18:05:56.348Z,2.38
2023-03-17T18:08:24.935Z,2.53
2023-03-17T18:10:52.575Z,1.90
2023-03-17T18:13:19.910Z,2.13
2023-03-17T18:15:47.080Z,2.42
2023-03-17T18:18:14.270Z,2.60
2023-03-17T18:20:41.808Z,2.50
2023-03-17T18:23:09.101Z,2.75
2023-03-17T18:25:37.418Z,2.75
2023-03-17T18:28:05.027Z,2.22
2023-03-17T18:30:35.410Z,2.60
2023-03-17T18:33:10.228Z,2.08
2023-03-17T18:35:37.893Z,2.45
2023-03-17T18:38:05.439Z,2.35
2023-03-17T18:40:32.736Z,2.28
2023-03-17T18:42:59.849Z,2.20
2023-03-17T18:45:27.067Z,2.13
2023-03-17T18:47:54.156Z,2.90
2023-03-17T18:50:22.151Z,2.42
2023-03-17T18:52:50.074Z,2.30
2023-03-17T18:55:17.749Z,3.55
2023-03-17T18:57:45.920Z,2.20
2023-03-17T19:00:15.375Z,2.40
2023-03-17T19:02:42.749Z,2.50
2023-03-17T19:05:10.574Z,2.63
2023-03-17T19:07:40.252Z,1.90
2023-03-17T19:10:10.674Z,2.10
2023-03-17T19:12:38.589Z,2.22
2023-03-17T19:15:08.237Z,2.55
2023-03-17T19:17:35.886Z,2.25
2023-03-17T19:20:03.365Z,2.50
2023-03-17T19:22:30.682Z,2.78
2023-03-17T19:24:57.759Z,2.22
2023-03-17T19:27:25.179Z,2.10
2023-03-17T19:29:52.309Z,2.30
2023-03-17T19:32:19.588Z,2.60
2023-03-17T19:34:47.973Z,2.60
2023-03-17T19:37:15.853Z,2.08
2023-03-17T19:39:45.046Z,2.15
2023-03-17T19:42:13.455Z,1.92
2023-03-17T19:44:43.356Z,2.33
2023-03-17T19:47:10.605Z,2.35
2023-03-17T19:49:38.388Z,2.22
2023-03-17T19:52:06.830Z,2.42
2023-03-17T19:54:34.578Z,2.40
2023-03-17T19:57:01.658Z,1.83
2023-03-17T19:59:29.322Z,2.80
2023-03-17T20:01:58.197Z,2.80
2023-03-17T20:04:26.345Z,2.30
2023-03-17T20:06:55.947Z,2.00
2023-03-17T20:09:27.032Z,2.30
2023-03-17T20:11:57.395Z,2.40
2023-03-17T20:14:25.300Z,2.45
2023-03-17T20:16:53.990Z,2.72
2023-03-17T20:19:21.792Z,2.90
2023-03-17T20:21:59.981Z,2.30
2023-03-17T20:24:30.476Z,2.50
2023-03-17T20:27:00.432Z,2.72
2023-03-17T20:29:29.181Z,2.15
2023-03-17T20:31:58.233Z,2.30
2023-03-17T20:34:26.195Z,3.00
2023-03-17T20:36:53.974Z,2.88
2023-03-17T20:39:21.876Z,2.70
2023-03-17T20:41:52.151Z,2.00
2023-03-17T20:44:20.641Z,2.65
2023-03-17T20:46:49.580Z,2.17
2023-03-17T20:49:17.745Z,2.20
2023-03-17T20:51:47.289Z,2.65
2023-03-17T20:54:16.049Z,2.28
2023-03-17T20:56:46.394Z,2.67
2023-03-17T20:59:15.451Z,3.22
2023-03-17T21:01:43.086Z,2.28
2023-03-17T21:04:12.806Z,2.47
2023-03-17T21:06:42.011Z,2.30
2023-03-17T21:09:10.404Z,2.95
2023-03-17T21:11:38.233Z,2.42
2023-03-17T21:14:09.482Z,2.70
2023-03-17T21:16:37.476Z,2.42
2023-03-17T21:19:08.594Z,2.70
2023-03-17T21:21:36.820Z,2.47
2023-03-17T21:24:05.874Z,2.90
2023-03-17T21:26:33.424Z,2.88
2023-03-17T21:29:00.570Z,2.40
2023-03-17T21:31:28.086Z,2.47
2023-03-17T21:33:55.641Z,3.03
2023-03-17T21:36:23.052Z,3.03
2023-03-17T21:38:50.163Z,4.40
2023-03-17T21:41:31.158Z,3.95
2023-03-17T21:43:58.356Z,4.30
2023-03-17T21:46:25.843Z,4.45
2023-03-17T21:48:54.223Z,3.67
2023-03-17T21:51:21.646Z,3.90
2023-03-17T21:53:49.120Z,4.55
2023-03-17T21:56:17.127Z,4.75
2023-03-17T21:58:44.395Z,4.75
2023-03-17T22:01:12.184Z,4.47
2023-03-17T22:03:40.202Z,3.78
2023-03-17T22:06:07.728Z,4.43
2023-03-17T22:08:34.901Z,3.45
2023-03-17T22:11:07.309Z,3.90
2023-03-17T22:13:34.977Z,4.38
2023-03-17T22:16:02.572Z,4.70
2023-03-17T22:18:29.856Z,4.50
2023-03-17T22:20:59.048Z,4.70
2023-03-17T22:23:26.952Z,4.32
2023-03-17T22:25:54.175Z,4.18
2023-03-17T22:28:21.638Z,4.18
2023-03-17T22:30:49.296Z,3.85
2023-03-17T22:33:17.724Z,4.30
2023-03-17T22:35:44.855Z,4.70
2023-03-17T22:38:13.248Z,4.00
2023-03-17T22:40:40.909Z,3.70
2023-03-17T22:43:08.509Z,4.30
2023-03-17T22:45:35.709Z,4.43
2023-03-17T22:48:02.707Z,3.90
2023-03-17T22:50:30.199Z,3.42
2023-03-17T22:52:57.796Z,3.75
2023-03-17T22:55:25.068Z,3.67
2023-03-17T22:57:52.339Z,4.07
2023-03-17T23:00:19.758Z,3.90
2023-03-17T23:02:46.896Z,3.63
2023-03-17T23:05:14.787Z,3.67
2023-03-17T23:07:50.396Z,4.07
2023-03-17T23:10:23.157Z,3.90
2023-03-17T23:12:51.193Z,3.80
2023-03-17T23:15:20.034Z,3.53
2023-03-17T23:17:47.637Z,4.50
2023-03-17T23:20:15.755Z,3.50
2023-03-17T23:22:43.267Z,3.58
2023-03-17T23:25:10.896Z,4.03
2023-03-17T23:27:37.940Z,3.78
2023-03-17T23:30:06.002Z,4.22
2023-03-17T23:32:34.350Z,3.72
2023-03-17T23:35:01.507Z,3.42
2023-03-17T23:37:31.293Z,3.10
2023-03-17T23:39:58.271Z,3.83
2023-03-17T23:42:25.461Z,3.58
2023-03-17T23:44:52.764Z,3.67
2023-03-17T23:47:20.690Z,3.63
2023-03-17T23:49:50.294Z,4.43
2023-03-17T23:52:17.970Z,3.58
2023-03-17T23:54:45.772Z,3.63
2023-03-17T23:57:13.342Z,3.72
2023-03-17T23:59:40.591Z,3.60
